createdAt,value
2023-03-26T00:00:51.229Z,101016.16
2023-03-26T00:03:25.164Z,101024.25
2023-03-26T00:06:11.513Z,101026.31
2023-03-26T00:08:44.510Z,101032.25
2023-03-26T00:11:17.300Z,101032.34
2023-03-26T00:13:48.842Z,101031.00
2023-03-26T00:16:21.193Z,101025.94
2023-03-26T00:18:52.640Z,101027.69
2023-03-26T00:21:29.281Z,101026.56
2023-03-26T00:24:05.252Z,101024.13
2023-03-26T00:26:38.509Z,101030.25
2023-03-26T00:29:11.196Z,101031.34
2023-03-26T00:31:46.992Z,101032.25
2023-03-26T00:34:19.272Z,101035.84
2023-03-26T00:36:55.744Z,101039.84
2023-03-26T00:39:26.997Z,101033.66
2023-03-26T00:41:58.592Z,101038.50
2023-03-26T00:44:29.985Z,101035.84
2023-03-26T00:47:00.551Z,101026.28
2023-03-26T00:49:31.673Z,101034.25
2023-03-26T00:52:04.156Z,101037.88
2023-03-26T00:54:35.012Z,101038.31
2023-03-26T00:57:07.706Z,101029.41
2023-03-26T00:59:39.560Z,101025.06
2023-03-26T01:02:17.854Z,101027.97
2023-03-26T01:05:03.680Z,101031.19
2023-03-26T01:07:36.139Z,101033.28
2023-03-26T01:10:08.428Z,101029.59
2023-03-26T01:12:39.208Z,101027.72
2023-03-26T01:15:11.471Z,101027.50
2023-03-26T01:17:44.109Z,101024.22
2023-03-26T01:20:27.673Z,101026.69
2023-03-26T01:23:06.286Z,101017.97
2023-03-26T01:25:44.602Z,101010.50
2023-03-26T01:28:18.480Z,101012.97
2023-03-26T01:31:10.935Z,101011.34
2023-03-26T01:33:48.431Z,101014.69
2023-03-26T01:36:37.514Z,101014.69
2023-03-26T01:39:32.904Z,101009.28
2023-03-26T01:42:39.612Z,101012.06
2023-03-26T01:45:19.962Z,101011.59
2023-03-26T01:47:51.192Z,101011.81
2023-03-26T01:50:22.204Z,101009.38
2023-03-26T01:52:52.894Z,101008.09
2023-03-26T01:55:27.349Z,101013.13
2023-03-26T01:58:08.810Z,101009.41
2023-03-26T02:00:47.589Z,101002.72
2023-03-26T02:03:33.387Z,100993.59
2023-03-26T02:06:12.217Z,100997.13
2023-03-26T02:09:08.714Z,100996.94
2023-03-26T02:11:43.698Z,100996.72
2023-03-26T02:14:15.515Z,100998.97
2023-03-26T02:16:47.747Z,100999.66
2023-03-26T02:19:25.458Z,100988.16
2023-03-26T02:22:00.666Z,100994.41
2023-03-26T02:24:33.809Z,100994.03
2023-03-26T02:27:05.026Z,100993.63
2023-03-26T02:29:40.829Z,100981.53
2023-03-26T02:32:14.254Z,100981.56
2023-03-26T02:34:48.362Z,100981.97
2023-03-26T02:37:20.100Z,100978.84
2023-03-26T02:39:55.915Z,100979.03
2023-03-26T02:42:34.872Z,100977.16
2023-03-26T02:45:07.735Z,100982.81
2023-03-26T02:48:01.847Z,100976.94
2023-03-26T02:50:55.358Z,100973.19
2023-03-26T02:53:44.191Z,100976.13
2023-03-26T02:56:37.891Z,100971.75
2023-03-26T02:59:29.307Z,100963.59
2023-03-26T03:02:20.393Z,100965.03
2023-03-26T03:04:52.847Z,100963.81
2023-03-26T03:07:26.323Z,100966.53
2023-03-26T03:10:03.210Z,100960.69
2023-03-26T03:13:00.997Z,100964.22
2023-03-26T03:15:32.394Z,100957.31
2023-03-26T03:18:03.635Z,100957.72
2023-03-26T03:20:36.044Z,100948.75
2023-03-26T03:23:06.900Z,100949.97
2023-03-26T03:25:39.406Z,100938.88
2023-03-26T03:28:10.861Z,100935.31
2023-03-26T03:30:42.781Z,100941.38
2023-03-26T03:33:26.297Z,100928.81
2023-03-26T03:35:57.353Z,100921.53
2023-03-26T03:38:29.332Z,100928.81
2023-03-26T03:41:00.160Z,100919.59
2023-03-26T03:43:33.750Z,100918.72
2023-03-26T03:46:18.206Z,100904.91
2023-03-26T03:48:51.425Z,100899.69
2023-03-26T03:51:38.493Z,100895.06
2023-03-26T03:54:24.086Z,100884.16
2023-03-26T03:57:19.901Z,100879.91
2023-03-26T04:00:15.821Z,100874.63
2023-03-26T04:02:47.070Z,100867.09
2023-03-26T04:05:19.078Z,100864.56
2023-03-26T04:07:53.572Z,100871.72
2023-03-26T04:10:30.347Z,100865.06
2023-03-26T04:13:17.064Z,100849.13
2023-03-26T04:16:08.153Z,100839.47
2023-03-26T04:18:43.419Z,100842.72
2023-03-26T04:21:18.103Z,100836.41
2023-03-26T04:23:49.092Z,100825.84
2023-03-26T04:26:50.955Z,100809.06
2023-03-26T04:29:45.744Z,100800.22
2023-03-26T04:32:30.904Z,100802.69
2023-03-26T04:35:04.970Z,100798.47
2023-03-26T04:37:43.123Z,100796.78
2023-03-26T04:40:23.097Z,100785.16
2023-03-26T04:43:07.528Z,100779.88
2023-03-26T04:46:13.575Z,100784.81
2023-03-26T04:48:57.089Z,100774.66
2023-03-26T04:51:39.291Z,100764.97
2023-03-26T04:54:22.590Z,100747.13
2023-03-26T04:57:08.113Z,100740.22
2023-03-26T04:59:59.179Z,100743.03
2023-03-26T05:02:33.685Z,100739.63
2023-03-26T05:05:05.241Z,100728.41
2023-03-26T05:07:38.056Z,100719.53
2023-03-26T05:10:15.149Z,100714.34
2023-03-26T05:13:07.219Z,100710.56
2023-03-26T05:15:40.378Z,100711.16
2023-03-26T05:18:37.205Z,100709.03
2023-03-26T05:21:12.083Z,100705.41
2023-03-26T05:23:44.713Z,100706.03
2023-03-26T05:26:23.018Z,100691.31
2023-03-26T05:28:53.820Z,100685.53
2023-03-26T05:31:34.180Z,100677.59
2023-03-26T05:34:07.700Z,100676.88
2023-03-26T05:36:39.305Z,100662.91
2023-03-26T05:39:27.363Z,100661.59
2023-03-26T05:42:16.710Z,100659.25
2023-03-26T05:45:23.510Z,100649.38
2023-03-26T05:47:56.834Z,100641.78
2023-03-26T05:50:29.646Z,100646.06
2023-03-26T05:53:03.370Z,100642.16
2023-03-26T05:55:37.165Z,100632.78
2023-03-26T05:58:28.233Z,100624.97
2023-03-26T06:01:18.083Z,100612.28
2023-03-26T06:04:07.381Z,100612.88
2023-03-26T06:06:43.698Z,100617.38
2023-03-26T06:09:14.762Z,100605.41
2023-03-26T06:11:46.329Z,100597.13
2023-03-26T06:14:17.992Z,100605.53
2023-03-26T06:17:07.393Z,100596.47
2023-03-26T06:19:58.317Z,100586.75
2023-03-26T06:22:38.249Z,100586.47
2023-03-26T06:25:22.496Z,100583.59
2023-03-26T06:28:14.116Z,100567.56
2023-03-26T06:31:08.072Z,100577.25
2023-03-26T06:34:04.836Z,100574.47
2023-03-26T06:36:35.793Z,100568.50
2023-03-26T06:39:07.840Z,100567.53
2023-03-26T06:41:43.083Z,100567.53
2023-03-26T06:44:37.140Z,100563.06
2023-03-26T06:47:27.031Z,100559.66
2023-03-26T06:49:57.594Z,100560.94
2023-03-26T06:52:42.239Z,100558.97
2023-03-26T06:55:45.203Z,100559.75
2023-03-26T06:58:29.745Z,100562.97
2023-03-26T07:01:18.978Z,100566.66
2023-03-26T07:04:08.381Z,100573.88
2023-03-26T07:06:57.358Z,100562.16
2023-03-26T07:09:46.910Z,100565.72
2023-03-26T07:12:36.784Z,100567.41
2023-03-26T07:15:26.310Z,100571.41
2023-03-26T07:18:13.351Z,100564.03
2023-03-26T07:20:48.244Z,100567.84
2023-03-26T07:23:24.546Z,100567.97
2023-03-26T07:26:30.624Z,100564.03
2023-03-26T07:29:41.015Z,100568.06
2023-03-26T07:33:10.274Z,100572.06
2023-03-26T07:36:19.044Z,100567.34
2023-03-26T07:39:53.597Z,100563.44
2023-03-26T07:42:52.300Z,100573.38
2023-03-26T07:45:47.276Z,100577.97
2023-03-26T07:48:50.947Z,100581.66
2023-03-26T07:51:36.650Z,100573.59
2023-03-26T07:54:16.391Z,100587.47
2023-03-26T07:57:06.569Z,100575.94
2023-03-26T08:00:43.968Z,100572.75
2023-03-26T08:03:23.018Z,100572.81
2023-03-26T08:06:07.389Z,100565.03
2023-03-26T08:09:06.149Z,100565.97
2023-03-26T08:12:36.230Z,100568.69
2023-03-26T08:15:38.776Z,100571.88
2023-03-26T08:18:42.471Z,100562.06
2023-03-26T08:21:22.940Z,100571.38
2023-03-26T08:24:40.608Z,100568.44
2023-03-26T08:27:41.925Z,100581.22
2023-03-26T08:30:19.418Z,100567.31
2023-03-26T08:33:02.634Z,100576.47
2023-03-26T08:35:34.307Z,100580.31
2023-03-26T08:38:05.079Z,100584.03
2023-03-26T08:40:53.759Z,100582.69
2023-03-26T08:43:57.476Z,100585.88
2023-03-26T08:46:28.544Z,100591.66
2023-03-26T08:49:13.858Z,100600.06
2023-03-26T08:52:14.874Z,100606.84
2023-03-26T08:55:08.352Z,100601.78
2023-03-26T08:58:24.324Z,100603.75
2023-03-26T09:01:00.681Z,100606.09
2023-03-26T09:03:46.370Z,100610.03
2023-03-26T09:06:52.045Z,100603.25
2023-03-26T09:09:43.844Z,100612.00
2023-03-26T09:12:59.119Z,100611.69
2023-03-26T09:15:51.918Z,100611.53
2023-03-26T09:18:25.327Z,100610.69
2023-03-26T09:21:19.301Z,100627.25
2023-03-26T09:23:50.793Z,100613.88
2023-03-26T09:26:52.463Z,100620.31
2023-03-26T09:29:34.540Z,100621.69
2023-03-26T09:32:39.547Z,100622.88
2023-03-26T09:35:13.658Z,100627.72
2023-03-26T09:37:56.062Z,100639.97
2023-03-26T09:40:55.880Z,100638.91
2023-03-26T09:43:45.409Z,100647.66
2023-03-26T09:46:27.220Z,100645.25
2023-03-26T09:49:03.910Z,100645.69
2023-03-26T09:52:09.529Z,100641.72
2023-03-26T09:55:02.606Z,100652.19
2023-03-26T09:57:54.762Z,100657.03
2023-03-26T10:00:28.976Z,100659.59
2023-03-26T10:03:11.338Z,100660.03
2023-03-26T10:06:01.049Z,100662.13
2023-03-26T10:08:34.972Z,100669.59
2023-03-26T10:11:36.336Z,100672.22
2023-03-26T10:14:41.802Z,100681.44
2023-03-26T10:17:26.741Z,100684.00
2023-03-26T10:20:31.078Z,100685.22
2023-03-26T10:23:26.060Z,100683.19
2023-03-26T10:26:22.753Z,100691.56
2023-03-26T10:29:00.459Z,100679.47
2023-03-26T10:31:54.096Z,100690.94
2023-03-26T10:34:52.721Z,100683.63
2023-03-26T10:37:35.055Z,100693.06
2023-03-26T10:40:26.979Z,100695.16
2023-03-26T10:43:20.759Z,100700.44
2023-03-26T10:46:40.467Z,100719.88
2023-03-26T10:49:35.163Z,100705.16
2023-03-26T10:52:10.413Z,100709.31
2023-03-26T10:55:01.053Z,100709.97
2023-03-26T10:57:46.534Z,100713.97
2023-03-26T11:00:28.179Z,100726.59
2023-03-26T11:03:32.990Z,100722.44
2023-03-26T11:06:06.554Z,100729.19
2023-03-26T11:08:51.193Z,100733.41
2023-03-26T11:11:30.988Z,100741.13
2023-03-26T11:14:08.025Z,100748.22
2023-03-26T11:16:54.778Z,100751.16
2023-03-26T11:19:46.721Z,100750.50
2023-03-26T11:22:41.002Z,100756.97
2023-03-26T11:25:39.499Z,100760.97
2023-03-26T11:28:28.608Z,100758.88
2023-03-26T11:31:16.749Z,100771.84
2023-03-26T11:33:54.923Z,100776.03
2023-03-26T11:36:36.816Z,100785.22
2023-03-26T11:39:14.592Z,100789.63
2023-03-26T11:41:46.631Z,100801.91
2023-03-26T11:44:55.975Z,100792.72
2023-03-26T11:48:05.001Z,100806.72
2023-03-26T11:50:37.604Z,100812.38
2023-03-26T11:53:23.247Z,100819.09
2023-03-26T11:56:18.196Z,100828.31
2023-03-26T11:58:53.633Z,100831.25
2023-03-26T12:01:53.810Z,100829.56
2023-03-26T12:04:38.760Z,100836.69
2023-03-26T12:07:18.276Z,100830.84
2023-03-26T12:10:18.831Z,100845.47
2023-03-26T12:12:50.284Z,100842.31
2023-03-26T12:15:22.358Z,100850.06
2023-03-26T12:17:57.389Z,100837.75
2023-03-26T12:20:27.785Z,100850.50
2023-03-26T12:23:03.696Z,100849.44
2023-03-26T12:25:39.567Z,100853.19
2023-03-26T12:28:16.687Z,100858.41
2023-03-26T12:30:57.142Z,100862.16
2023-03-26T12:33:35.924Z,100859.25
2023-03-26T12:36:27.420Z,100858.63
2023-03-26T12:39:42.599Z,100859.03
2023-03-26T12:44:44.673Z,100854.84
2023-03-26T12:44:58.826Z,100860.50
2023-03-26T12:47:59.420Z,100869.25
2023-03-26T12:50:35.778Z,100870.06
2023-03-26T12:53:46.094Z,100866.94
2023-03-26T12:56:37.234Z,100873.41
2023-03-26T12:59:19.399Z,100871.75
2023-03-26T13:02:16.973Z,100875.72
2023-03-26T13:05:06.849Z,100886.72
2023-03-26T13:07:48.290Z,100887.75
2023-03-26T13:10:28.913Z,100884.66
2023-03-26T13:13:30.045Z,100897.81
2023-03-26T13:16:26.910Z,100891.28
2023-03-26T13:19:05.317Z,100881.72
2023-03-26T13:21:53.735Z,100892.56
2023-03-26T13:24:41.467Z,100897.75
2023-03-26T13:27:49.479Z,100896.28
2023-03-26T13:30:38.259Z,100904.28
2023-03-26T13:33:12.740Z,100897.41
2023-03-26T13:36:10.196Z,100903.88
2023-03-26T13:38:58.593Z,100904.72
2023-03-26T13:41:53.685Z,100910.97
2023-03-26T13:44:46.366Z,100914.31
2023-03-26T13:47:21.296Z,100918.47
2023-03-26T13:50:14.510Z,100929.75
2023-03-26T13:53:08.245Z,100931.44
2023-03-26T13:55:43.430Z,100933.72
2023-03-26T13:58:35.190Z,100944.38
2023-03-26T14:01:11.170Z,100948.13
2023-03-26T14:04:02.925Z,100955.63
2023-03-26T14:06:42.910Z,100957.28
2023-03-26T14:09:23.997Z,100961.03
2023-03-26T14:11:58.589Z,100970.63
2023-03-26T14:14:47.290Z,100976.28
2023-03-26T14:17:48.295Z,100979.41
2023-03-26T14:20:57.620Z,100982.31
2023-03-26T14:24:15.935Z,100986.06
2023-03-26T14:27:08.177Z,100978.53
2023-03-26T14:29:56.607Z,100986.06
2023-03-26T14:32:44.888Z,100985.41
2023-03-26T14:35:38.726Z,100985.41
2023-03-26T14:38:36.684Z,100990.63
2023-03-26T14:41:21.880Z,100983.13
2023-03-26T14:44:18.675Z,100984.56
2023-03-26T14:47:11.284Z,100982.03
2023-03-26T14:49:47.962Z,100978.88
2023-03-26T14:52:31.439Z,100985.53
2023-03-26T14:55:04.447Z,100981.38
2023-03-26T14:57:35.101Z,100979.69
2023-03-26T15:00:39.853Z,100981.38
2023-03-26T15:03:25.410Z,100981.78
2023-03-26T15:06:05.366Z,100983.00
2023-03-26T15:09:00.316Z,100980.28
2023-03-26T15:11:52.293Z,100981.72
2023-03-26T15:14:59.064Z,100982.59
2023-03-26T15:17:53.777Z,100984.03
2023-03-26T15:20:57.948Z,100984.03
2023-03-26T15:24:00.219Z,100977.34
2023-03-26T15:27:07.680Z,100988.41
2023-03-26T15:30:11.257Z,100984.44
2023-03-26T15:33:00.464Z,100978.38
2023-03-26T15:36:12.573Z,100978.78
2023-03-26T15:39:17.477Z,100970.44
2023-03-26T15:42:26.186Z,100978.38
2023-03-26T15:45:08.801Z,100976.47
2023-03-26T15:47:53.261Z,100979.59
2023-03-26T15:50:50.543Z,100972.50
2023-03-26T15:53:55.448Z,100975.84
2023-03-26T15:57:03.223Z,100965.00
2023-03-26T15:59:55.885Z,100962.91
2023-03-26T16:02:34.521Z,100962.06
2023-03-26T16:05:26.570Z,100958.31
2023-03-26T16:08:29.706Z,100963.09
2023-03-26T16:11:13.416Z,100953.06
2023-03-26T16:14:05.173Z,100949.53
2023-03-26T16:16:59.551Z,100946.59
2023-03-26T16:19:37.702Z,100943.00
2023-03-26T16:22:42.797Z,100934.88
2023-03-26T16:25:30.501Z,100934.00
2023-03-26T16:28:12.571Z,100930.72
2023-03-26T16:30:46.958Z,100928.16
2023-03-26T16:33:22.109Z,100927.06
2023-03-26T16:36:19.383Z,100925.00
2023-03-26T16:38:53.731Z,100915.63
2023-03-26T16:41:50.992Z,100920.00
2023-03-26T16:44:33.305Z,100914.97
2023-03-26T16:47:20.895Z,100908.97
2023-03-26T16:50:42.753Z,100904.16
2023-03-26T16:53:32.908Z,100903.91
2023-03-26T16:56:27.220Z,100902.88
2023-03-26T16:59:03.365Z,100907.22
2023-03-26T17:01:44.563Z,100909.72
2023-03-26T17:04:26.792Z,100902.63
2023-03-26T17:07:18.264Z,100904.06
2023-03-26T17:10:17.463Z,100896.97
2023-03-26T17:13:11.506Z,100899.28
2023-03-26T17:15:50.427Z,100894.50
2023-03-26T17:18:47.470Z,100891.72
2023-03-26T17:21:21.932Z,100886.13
2023-03-26T17:24:01.011Z,100892.59
2023-03-26T17:26:45.146Z,100888.19
2023-03-26T17:29:37.741Z,100898.41
2023-03-26T17:32:13.192Z,100906.06
2023-03-26T17:34:57.636Z,100900.00
2023-03-26T17:37:42.139Z,100890.88
2023-03-26T17:40:45.691Z,100890.22
2023-03-26T17:43:37.650Z,100885.84
2023-03-26T17:46:35.060Z,100876.03
2023-03-26T17:49:15.202Z,100874.78
2023-03-26T17:51:50.309Z,100875.34
2023-03-26T17:54:25.975Z,100880.75
2023-03-26T17:56:57.286Z,100883.69
2023-03-26T17:59:28.912Z,100869.50
2023-03-26T18:02:04.442Z,100870.34
2023-03-26T18:04:40.968Z,100867.84
2023-03-26T18:07:50.656Z,100876.19
2023-03-26T18:11:02.423Z,100867.44
2023-03-26T18:13:43.937Z,100853.22
2023-03-26T18:16:35.305Z,100860.75
2023-03-26T18:19:19.344Z,100854.84
2023-03-26T18:22:01.377Z,100850.09
2023-03-26T18:24:35.322Z,100852.72
2023-03-26T18:27:21.330Z,100851.91
2023-03-26T18:30:01.943Z,100856.47
2023-03-26T18:32:42.044Z,100857.31
2023-03-26T18:35:31.145Z,100843.97
2023-03-26T18:38:01.417Z,100850.63
2023-03-26T18:40:42.228Z,100852.31
2023-03-26T18:43:34.335Z,100859.78
2023-03-26T18:46:06.643Z,100856.19
2023-03-26T18:48:37.904Z,100847.03
2023-03-26T18:51:09.019Z,100848.25
2023-03-26T18:53:42.113Z,100848.47
2023-03-26T18:56:37.745Z,100848.06
2023-03-26T18:59:21.682Z,100848.38
2023-03-26T19:01:52.080Z,100849.59
2023-03-26T19:04:22.302Z,100848.56
2023-03-26T19:06:56.123Z,100849.22
2023-03-26T19:09:32.018Z,100845.88
2023-03-26T19:12:17.564Z,100844.00
2023-03-26T19:14:59.601Z,100841.69
2023-03-26T19:17:33.571Z,100848.31
2023-03-26T19:20:08.378Z,100840.81
2023-03-26T19:22:43.186Z,100842.28
2023-03-26T19:25:22.753Z,100833.78
2023-03-26T19:27:53.548Z,100839.97
2023-03-26T19:30:35.622Z,100840.41
2023-03-26T19:33:14.802Z,100839.72
2023-03-26T19:35:49.326Z,100843.31
2023-03-26T19:38:30.109Z,100844.72
2023-03-26T19:41:00.221Z,100834.94
2023-03-26T19:43:30.556Z,100840.34
2023-03-26T19:46:03.674Z,100841.78
2023-03-26T19:51:18.597Z,100838.91
2023-03-26T19:51:37.020Z,100835.72
2023-03-26T19:54:17.185Z,100830.31
2023-03-26T19:56:50.394Z,100827.38
2023-03-26T19:59:26.007Z,100829.03
2023-03-26T20:01:56.454Z,100826.53
2023-03-26T20:04:27.008Z,100832.38
2023-03-26T20:06:58.256Z,100832.13
2023-03-26T20:09:28.828Z,100835.69
2023-03-26T20:12:00.048Z,100826.06
2023-03-26T20:14:33.351Z,100831.88
2023-03-26T20:17:04.309Z,100832.50
2023-03-26T20:19:36.295Z,100832.91
2023-03-26T20:22:08.089Z,100827.72
2023-03-26T20:24:38.902Z,100837.22
2023-03-26T20:27:09.718Z,100836.00
2023-03-26T20:29:41.105Z,100848.47
2023-03-26T20:32:26.930Z,100846.16
2023-03-26T20:34:58.653Z,100845.91
2023-03-26T20:37:29.452Z,100843.84
2023-03-26T20:40:00.309Z,100847.41
2023-03-26T20:42:31.900Z,100848.81
2023-03-26T20:45:02.154Z,100848.31
2023-03-26T20:47:32.822Z,100850.00
2023-03-26T20:50:03.290Z,100849.34
2023-03-26T20:52:35.074Z,100855.78
2023-03-26T20:55:07.171Z,100853.72
2023-03-26T20:57:37.387Z,100856.63
2023-03-26T21:00:27.747Z,100854.47
2023-03-26T21:02:59.518Z,100861.94
2023-03-26T21:05:31.670Z,100864.00
2023-03-26T21:08:02.508Z,100860.66
2023-03-26T21:10:35.360Z,100869.78
2023-03-26T21:13:14.644Z,100872.09
2023-03-26T21:15:46.083Z,100872.47
2023-03-26T21:18:17.008Z,100883.03
2023-03-26T21:21:18.212Z,100879.94
2023-03-26T21:24:30.563Z,100891.34
2023-03-26T21:27:56.363Z,100889.06
2023-03-26T21:30:33.335Z,100895.44
2023-03-26T21:33:06.168Z,100896.25
2023-03-26T21:35:36.933Z,100904.56
2023-03-26T21:38:10.334Z,100896.03
2023-03-26T21:40:44.591Z,100911.19
2023-03-26T21:43:21.675Z,100911.19
2023-03-26T21:45:55.587Z,100911.56
2023-03-26T21:48:26.594Z,100919.03
2023-03-26T21:51:03.188Z,100926.09
2023-03-26T21:53:34.038Z,100926.09
2023-03-26T21:56:16.262Z,100927.78
2023-03-26T21:58:49.877Z,100930.66
2023-03-26T22:01:26.092Z,100935.22
2023-03-26T22:04:22.273Z,100933.47
2023-03-26T22:07:04.504Z,100936.44
2023-03-26T22:09:36.471Z,100939.72
2023-03-26T22:12:07.749Z,100939.44
2023-03-26T22:14:39.008Z,100938.03
2023-03-26T22:17:09.665Z,100942.78
2023-03-26T22:19:39.952Z,100947.16
2023-03-26T22:22:11.493Z,100950.88
2023-03-26T22:24:42.608Z,100952.94
2023-03-26T22:27:14.181Z,100949.38
2023-03-26T22:29:45.117Z,100956.66
2023-03-26T22:32:15.774Z,100959.34
2023-03-26T22:34:46.593Z,100963.91
2023-03-26T22:37:17.214Z,100962.72
2023-03-26T22:39:47.555Z,100961.84
2023-03-26T22:42:17.991Z,100965.41
2023-03-26T22:44:48.472Z,100974.91
2023-03-26T22:47:18.681Z,100977.03
2023-03-26T22:49:50.036Z,100983.28
2023-03-26T22:52:20.632Z,100990.00
2023-03-26T22:54:51.626Z,100997.44
2023-03-26T22:57:23.000Z,100997.53
2023-03-26T22:59:54.144Z,100996.69
2023-03-26T23:02:24.355Z,101000.88
2023-03-26T23:04:55.074Z,101004.06
2023-03-26T23:07:25.473Z,101003.03
2023-03-26T23:09:55.778Z,101012.59
2023-03-26T23:12:26.939Z,101015.09
2023-03-26T23:14:57.245Z,101015.75
2023-03-26T23:17:28.095Z,101016.63
2023-03-26T23:20:01.665Z,101014.38
2023-03-26T23:22:32.551Z,101026.84
2023-03-26T23:25:03.484Z,101025.66
2023-03-26T23:27:36.953Z,101029.28
2023-03-26T23:30:08.063Z,101036.53
2023-03-26T23:32:38.837Z,101042.22
2023-03-26T23:35:10.084Z,101044.56
2023-03-26T23:37:43.103Z,101045.44
2023-03-26T23:40:14.751Z,101048.56
2023-03-26T23:42:48.495Z,101045.88
2023-03-26T23:45:19.417Z,101057.34
2023-03-26T23:47:49.684Z,101049.31
2023-03-26T23:50:24.485Z,101051.00
2023-03-26T23:52:55.254Z,101050.63
2023-03-26T23:55:30.210Z,101051.06
2023-03-26T23:58:01.207Z,101052.38
